sensor_id;sensor_type;location;lat;lon;timestamp;pressure;altitude;pressure_sealevel;temperature
10869;BMP180;62667;48.698;8.762;2023-06-22T00:01:19;96086.00;;;20.50
10869;BMP180;62667;48.698;8.762;2023-06-22T00:03:48;96087.00;;;20.50
10869;BMP180;62667;48.698;8.762;2023-06-22T00:06:16;96095.00;;;20.40
10869;BMP180;62667;48.698;8.762;2023-06-22T00:08:43;96106.00;;;20.30
10869;BMP180;62667;48.698;8.762;2023-06-22T00:11:11;96103.00;;;20.20
10869;BMP180;62667;48.698;8.762;2023-06-22T00:13:39;96080.00;;;20.20
10869;BMP180;62667;48.698;8.762;2023-06-22T00:16:06;96091.00;;;20.20
10869;BMP180;62667;48.698;8.762;2023-06-22T00:18:34;96103.00;;;20.10
10869;BMP180;62667;48.698;8.762;2023-06-22T00:21:03;96113.00;;;19.70
10869;BMP180;62667;48.698;8.762;2023-06-22T00:23:30;96108.00;;;19.80
10869;BMP180;62667;48.698;8.762;2023-06-22T00:26:00;96103.00;;;19.90
10869;BMP180;62667;48.698;8.762;2023-06-22T00:28:27;96099.00;;;20.00
10869;BMP180;62667;48.698;8.762;2023-06-22T00:30:55;96081.00;;;20.00
10869;BMP180;62667;48.698;8.762;2023-06-22T00:33:22;96074.00;;;20.10
10869;BMP180;62667;48.698;8.762;2023-06-22T00:35:50;96135.00;;;20.20
10869;BMP180;62667;48.698;8.762;2023-06-22T00:38:20;96156.00;;;19.40
10869;BMP180;62667;48.698;8.762;2023-06-22T00:40:47;96147.00;;;19.40
10869;BMP180;62667;48.698;8.762;2023-06-22T00:43:15;96131.00;;;19.50
10869;BMP180;62667;48.698;8.762;2023-06-22T00:45:42;96147.00;;;19.60
10869;BMP180;62667;48.698;8.762;2023-06-22T00:48:10;96174.00;;;19.70
10869;BMP180;62667;48.698;8.762;2023-06-22T00:50:39;96185.00;;;19.60
10869;BMP180;62667;48.698;8.762;2023-06-22T00:53:08;96136.00;;;19.60
10869;BMP180;62667;48.698;8.762;2023-06-22T00:55:37;96130.00;;;19.60
10869;BMP180;62667;48.698;8.762;2023-06-22T00:58:06;96136.00;;;19.70
10869;BMP180;62667;48.698;8.762;2023-06-22T01:00:36;96137.00;;;19.70
10869;BMP180;62667;48.698;8.762;2023-06-22T01:03:04;96114.00;;;19.70
10869;BMP180;62667;48.698;8.762;2023-06-22T01:05:37;96111.00;;;19.70
10869;BMP180;62667;48.698;8.762;2023-06-22T01:08:27;96097.00;;;19.70
10869;BMP180;62667;48.698;8.762;2023-06-22T01:11:03;96106.00;;;19.50
10869;BMP180;62667;48.698;8.762;2023-06-22T01:13:36;96098.00;;;19.60
10869;BMP180;62667;48.698;8.762;2023-06-22T01:16:09;96088.00;;;19.60
10869;BMP180;62667;48.698;8.762;2023-06-22T01:18:41;96079.00;;;19.50
10869;BMP180;62667;48.698;8.762;2023-06-22T01:21:12;96083.00;;;19.60
10869;BMP180;62667;48.698;8.762;2023-06-22T01:23:54;96094.00;;;19.60
10869;BMP180;62667;48.698;8.762;2023-06-22T01:26:37;96092.00;;;19.60
10869;BMP180;62667;48.698;8.762;2023-06-22T01:29:07;96091.00;;;19.60
10869;BMP180;62667;48.698;8.762;2023-06-22T01:31:40;96081.00;;;19.60
10869;BMP180;62667;48.698;8.762;2023-06-22T01:34:09;96090.00;;;19.60
10869;BMP180;62667;48.698;8.762;2023-06-22T01:36:38;96090.00;;;19.60
10869;BMP180;62667;48.698;8.762;2023-06-22T01:39:06;96092.00;;;19.60
10869;BMP180;62667;48.698;8.762;2023-06-22T01:41:36;96084.00;;;19.70
10869;BMP180;62667;48.698;8.762;2023-06-22T01:44:06;96087.00;;;19.70
10869;BMP180;62667;48.698;8.762;2023-06-22T01:46:35;96095.00;;;19.70
10869;BMP180;62667;48.698;8.762;2023-06-22T01:49:03;96105.00;;;19.80
10869;BMP180;62667;48.698;8.762;2023-06-22T01:51:31;96112.00;;;19.40
10869;BMP180;62667;48.698;8.762;2023-06-22T01:53:58;96108.00;;;19.30
10869;BMP180;62667;48.698;8.762;2023-06-22T01:56:26;96119.00;;;19.40
10869;BMP180;62667;48.698;8.762;2023-06-22T01:59:01;96114.00;;;19.40
10869;BMP180;62667;48.698;8.762;2023-06-22T02:01:39;96116.00;;;19.40
10869;BMP180;62667;48.698;8.762;2023-06-22T02:04:13;96115.00;;;19.40
10869;BMP180;62667;48.698;8.762;2023-06-22T02:06:43;96119.00;;;19.40
10869;BMP180;62667;48.698;8.762;2023-06-22T02:09:15;96114.00;;;19.20
10869;BMP180;62667;48.698;8.762;2023-06-22T02:11:45;96103.00;;;19.30
10869;BMP180;62667;48.698;8.762;2023-06-22T02:14:13;96100.00;;;19.20
10869;BMP180;62667;48.698;8.762;2023-06-22T02:16:43;96088.00;;;19.00
10869;BMP180;62667;48.698;8.762;2023-06-22T02:19:11;96082.00;;;19.10
10869;BMP180;62667;48.698;8.762;2023-06-22T02:21:38;96082.00;;;19.20
10869;BMP180;62667;48.698;8.762;2023-06-22T02:24:06;96082.00;;;19.20
10869;BMP180;62667;48.698;8.762;2023-06-22T02:26:33;96072.00;;;19.20
10869;BMP180;62667;48.698;8.762;2023-06-22T02:29:01;96081.00;;;19.20
10869;BMP180;62667;48.698;8.762;2023-06-22T02:31:28;96098.00;;;19.00
10869;BMP180;62667;48.698;8.762;2023-06-22T02:33:58;96083.00;;;18.80
10869;BMP180;62667;48.698;8.762;2023-06-22T02:36:26;96079.00;;;19.00
10869;BMP180;62667;48.698;8.762;2023-06-22T02:38:56;96078.00;;;19.00
10869;BMP180;62667;48.698;8.762;2023-06-22T02:41:27;96071.00;;;19.00
10869;BMP180;62667;48.698;8.762;2023-06-22T02:43:54;96066.00;;;18.90
10869;BMP180;62667;48.698;8.762;2023-06-22T02:46:22;96076.00;;;18.90
10869;BMP180;62667;48.698;8.762;2023-06-22T02:48:49;96074.00;;;18.90
10869;BMP180;62667;48.698;8.762;2023-06-22T02:51:18;96069.00;;;18.90
10869;BMP180;62667;48.698;8.762;2023-06-22T02:53:45;96074.00;;;18.90
10869;BMP180;62667;48.698;8.762;2023-06-22T02:56:13;96082.00;;;18.90
10869;BMP180;62667;48.698;8.762;2023-06-22T02:58:41;96073.00;;;18.80
10869;BMP180;62667;48.698;8.762;2023-06-22T03:01:09;96062.00;;;18.60
10869;BMP180;62667;48.698;8.762;2023-06-22T03:03:39;96070.00;;;18.70
10869;BMP180;62667;48.698;8.762;2023-06-22T03:06:07;96068.00;;;18.80
10869;BMP180;62667;48.698;8.762;2023-06-22T03:08:41;96063.00;;;18.70
10869;BMP180;62667;48.698;8.762;2023-06-22T03:11:08;96053.00;;;18.60
10869;BMP180;62667;48.698;8.762;2023-06-22T03:13:36;96066.00;;;18.70
10869;BMP180;62667;48.698;8.762;2023-06-22T03:16:04;96066.00;;;18.70
10869;BMP180;62667;48.698;8.762;2023-06-22T03:18:31;96063.00;;;18.60
10869;BMP180;62667;48.698;8.762;2023-06-22T03:20:59;96059.00;;;18.60
10869;BMP180;62667;48.698;8.762;2023-06-22T03:23:28;96052.00;;;18.70
10869;BMP180;62667;48.698;8.762;2023-06-22T03:25:57;96049.00;;;18.60
10869;BMP180;62667;48.698;8.762;2023-06-22T03:28:24;96061.00;;;18.70
10869;BMP180;62667;48.698;8.762;2023-06-22T03:30:51;96062.00;;;18.70
10869;BMP180;62667;48.698;8.762;2023-06-22T03:33:19;96059.00;;;18.60
10869;BMP180;62667;48.698;8.762;2023-06-22T03:35:46;96057.00;;;18.50
10869;BMP180;62667;48.698;8.762;2023-06-22T03:38:14;96043.00;;;18.60
10869;BMP180;62667;48.698;8.762;2023-06-22T03:40:41;96048.00;;;18.60
10869;BMP180;62667;48.698;8.762;2023-06-22T03:43:10;96037.00;;;18.70
10869;BMP180;62667;48.698;8.762;2023-06-22T03:45:37;96010.00;;;18.70
10869;BMP180;62667;48.698;8.762;2023-06-22T03:48:06;96037.00;;;18.80
10869;BMP180;62667;48.698;8.762;2023-06-22T03:50:33;96043.00;;;18.70
10869;BMP180;62667;48.698;8.762;2023-06-22T03:53:01;96053.00;;;18.70
10869;BMP180;62667;48.698;8.762;2023-06-22T03:55:28;96051.00;;;18.70
10869;BMP180;62667;48.698;8.762;2023-06-22T03:57:56;96044.00;;;18.70
10869;BMP180;62667;48.698;8.762;2023-06-22T04:00:25;96044.00;;;18.60
10869;BMP180;62667;48.698;8.762;2023-06-22T04:02:52;96032.00;;;18.70
10869;BMP180;62667;48.698;8.762;2023-06-22T04:05:19;96031.00;;;18.80
10869;BMP180;62667;48.698;8.762;2023-06-22T04:07:47;96040.00;;;18.80
10869;BMP180;62667;48.698;8.762;2023-06-22T04:10:14;96039.00;;;18.60
10869;BMP180;62667;48.698;8.762;2023-06-22T04:12:42;96035.00;;;18.40
10869;BMP180;62667;48.698;8.762;2023-06-22T04:15:10;96039.00;;;18.60
10869;BMP180;62667;48.698;8.762;2023-06-22T04:17:39;96032.00;;;18.90
10869;BMP180;62667;48.698;8.762;2023-06-22T04:20:08;96029.00;;;19.00
10869;BMP180;62667;48.698;8.762;2023-06-22T04:22:35;96025.00;;;19.10
10869;BMP180;62667;48.698;8.762;2023-06-22T04:25:03;96027.00;;;19.00
10869;BMP180;62667;48.698;8.762;2023-06-22T04:27:30;96030.00;;;18.90
10869;BMP180;62667;48.698;8.762;2023-06-22T04:29:58;96015.00;;;19.00
10869;BMP180;62667;48.698;8.762;2023-06-22T04:32:26;96014.00;;;19.20
10869;BMP180;62667;48.698;8.762;2023-06-22T04:34:55;96013.00;;;19.30
10869;BMP180;62667;48.698;8.762;2023-06-22T04:37:22;96015.00;;;19.20
10869;BMP180;62667;48.698;8.762;2023-06-22T04:39:50;96005.00;;;19.20
10869;BMP180;62667;48.698;8.762;2023-06-22T04:42:19;96010.00;;;19.10
10869;BMP180;62667;48.698;8.762;2023-06-22T04:44:46;96012.00;;;19.20
10869;BMP180;62667;48.698;8.762;2023-06-22T04:47:13;96008.00;;;19.30
10869;BMP180;62667;48.698;8.762;2023-06-22T04:49:41;96010.00;;;19.20
10869;BMP180;62667;48.698;8.762;2023-06-22T04:52:12;96004.00;;;19.30
10869;BMP180;62667;48.698;8.762;2023-06-22T04:54:46;96010.00;;;19.50
10869;BMP180;62667;48.698;8.762;2023-06-22T04:57:16;96009.00;;;19.50
10869;BMP180;62667;48.698;8.762;2023-06-22T04:59:43;96010.00;;;19.60
10869;BMP180;62667;48.698;8.762;2023-06-22T05:02:11;96011.00;;;19.80
10869;BMP180;62667;48.698;8.762;2023-06-22T05:04:38;96000.00;;;19.80
10869;BMP180;62667;48.698;8.762;2023-06-22T05:07:06;96002.00;;;19.90
10869;BMP180;62667;48.698;8.762;2023-06-22T05:09:35;95993.00;;;19.90
10869;BMP180;62667;48.698;8.762;2023-06-22T05:12:03;95988.00;;;19.70
10869;BMP180;62667;48.698;8.762;2023-06-22T05:14:31;95990.00;;;19.70
10869;BMP180;62667;48.698;8.762;2023-06-22T05:16:58;95987.00;;;19.90
10869;BMP180;62667;48.698;8.762;2023-06-22T05:19:29;95992.00;;;20.00
10869;BMP180;62667;48.698;8.762;2023-06-22T05:21:59;95981.00;;;20.10
10869;BMP180;62667;48.698;8.762;2023-06-22T05:24:26;95980.00;;;20.10
10869;BMP180;62667;48.698;8.762;2023-06-22T05:26:55;95979.00;;;20.20
10869;BMP180;62667;48.698;8.762;2023-06-22T05:29:22;95976.00;;;20.20
10869;BMP180;62667;48.698;8.762;2023-06-22T05:31:50;95984.00;;;20.10
10869;BMP180;62667;48.698;8.762;2023-06-22T05:34:17;95989.00;;;19.70
10869;BMP180;62667;48.698;8.762;2023-06-22T05:36:45;95981.00;;;20.00
10869;BMP180;62667;48.698;8.762;2023-06-22T05:39:13;95985.00;;;19.90
10869;BMP180;62667;48.698;8.762;2023-06-22T05:41:40;95990.00;;;19.80
10869;BMP180;62667;48.698;8.762;2023-06-22T05:44:10;95985.00;;;20.00
10869;BMP180;62667;48.698;8.762;2023-06-22T05:46:41;95989.00;;;20.20
10869;BMP180;62667;48.698;8.762;2023-06-22T05:49:11;95986.00;;;20.40
10869;BMP180;62667;48.698;8.762;2023-06-22T05:51:38;95991.00;;;20.30
10869;BMP180;62667;48.698;8.762;2023-06-22T05:54:06;95989.00;;;20.50
10869;BMP180;62667;48.698;8.762;2023-06-22T05:56:34;95994.00;;;20.60
10869;BMP180;62667;48.698;8.762;2023-06-22T05:59:01;95987.00;;;20.80
10869;BMP180;62667;48.698;8.762;2023-06-22T06:01:30;95977.00;;;21.00
10869;BMP180;62667;48.698;8.762;2023-06-22T06:04:01;95982.00;;;21.10
10869;BMP180;62667;48.698;8.762;2023-06-22T06:06:28;95981.00;;;21.10
10869;BMP180;62667;48.698;8.762;2023-06-22T06:08:56;95979.00;;;20.90
10869;BMP180;62667;48.698;8.762;2023-06-22T06:11:23;95977.00;;;21.10
10869;BMP180;62667;48.698;8.762;2023-06-22T06:13:51;95971.00;;;21.10
10869;BMP180;62667;48.698;8.762;2023-06-22T06:16:18;95976.00;;;21.20
10869;BMP180;62667;48.698;8.762;2023-06-22T06:18:47;95977.00;;;21.20
10869;BMP180;62667;48.698;8.762;2023-06-22T06:21:17;95972.00;;;21.20
10869;BMP180;62667;48.698;8.762;2023-06-22T06:23:44;95970.00;;;21.30
10869;BMP180;62667;48.698;8.762;2023-06-22T06:26:11;95975.00;;;21.50
10869;BMP180;62667;48.698;8.762;2023-06-22T06:28:39;95978.00;;;21.70
10869;BMP180;62667;48.698;8.762;2023-06-22T06:31:07;95979.00;;;21.60
10869;BMP180;62667;48.698;8.762;2023-06-22T06:33:35;95982.00;;;21.40
10869;BMP180;62667;48.698;8.762;2023-06-22T06:36:04;95983.00;;;21.50
10869;BMP180;62667;48.698;8.762;2023-06-22T06:38:34;95986.00;;;21.80
10869;BMP180;62667;48.698;8.762;2023-06-22T06:41:02;95980.00;;;21.90
10869;BMP180;62667;48.698;8.762;2023-06-22T06:43:29;95978.00;;;22.10
10869;BMP180;62667;48.698;8.762;2023-06-22T06:45:57;95965.00;;;22.30
10869;BMP180;62667;48.698;8.762;2023-06-22T06:48:24;95960.00;;;22.40
10869;BMP180;62667;48.698;8.762;2023-06-22T06:50:51;95955.00;;;22.60
10869;BMP180;62667;48.698;8.762;2023-06-22T06:53:20;95951.00;;;22.80
10869;BMP180;62667;48.698;8.762;2023-06-22T06:55:48;95955.00;;;22.90
10869;BMP180;62667;48.698;8.762;2023-06-22T06:58:15;95956.00;;;23.00
10869;BMP180;62667;48.698;8.762;2023-06-22T07:00:43;95957.00;;;23.20
10869;BMP180;62667;48.698;8.762;2023-06-22T07:03:10;95946.00;;;23.30
10869;BMP180;62667;48.698;8.762;2023-06-22T07:05:38;95939.00;;;23.40
10869;BMP180;62667;48.698;8.762;2023-06-22T07:08:05;95942.00;;;23.30
10869;BMP180;62667;48.698;8.762;2023-06-22T07:10:34;95930.00;;;23.60
10869;BMP180;62667;48.698;8.762;2023-06-22T07:13:02;95934.00;;;23.70
10869;BMP180;62667;48.698;8.762;2023-06-22T07:15:29;95930.00;;;23.70
10869;BMP180;62667;48.698;8.762;2023-06-22T07:17:56;95927.00;;;23.90
10869;BMP180;62667;48.698;8.762;2023-06-22T07:20:24;95920.00;;;24.00
10869;BMP180;62667;48.698;8.762;2023-06-22T07:22:52;95921.00;;;24.20
10869;BMP180;62667;48.698;8.762;2023-06-22T07:25:20;95919.00;;;24.30
10869;BMP180;62667;48.698;8.762;2023-06-22T07:28:00;95909.00;;;24.40
10869;BMP180;62667;48.698;8.762;2023-06-22T07:30:28;95905.00;;;24.50
10869;BMP180;62667;48.698;8.762;2023-06-22T07:32:56;95916.00;;;24.50
10869;BMP180;62667;48.698;8.762;2023-06-22T07:35:24;95916.00;;;24.60
10869;BMP180;62667;48.698;8.762;2023-06-22T07:37:52;95920.00;;;24.70
10869;BMP180;62667;48.698;8.762;2023-06-22T07:40:19;95925.00;;;24.50
10869;BMP180;62667;48.698;8.762;2023-06-22T07:42:48;95925.00;;;24.50
10869;BMP180;62667;48.698;8.762;2023-06-22T07:45:18;95916.00;;;24.70
10869;BMP180;62667;48.698;8.762;2023-06-22T07:47:45;95926.00;;;24.80
10869;BMP180;62667;48.698;8.762;2023-06-22T07:50:12;95924.00;;;25.00
10869;BMP180;62667;48.698;8.762;2023-06-22T07:52:40;95925.00;;;25.10
10869;BMP180;62667;48.698;8.762;2023-06-22T07:55:08;95938.00;;;25.30
10869;BMP180;62667;48.698;8.762;2023-06-22T07:57:35;95933.00;;;25.30
10869;BMP180;62667;48.698;8.762;2023-06-22T08:00:06;95943.00;;;25.40
10869;BMP180;62667;48.698;8.762;2023-06-22T08:02:39;95955.00;;;25.60
10869;BMP180;62667;48.698;8.762;2023-06-22T08:05:07;95959.00;;;25.60
10869;BMP180;62667;48.698;8.762;2023-06-22T08:07:35;95955.00;;;25.50
10869;BMP180;62667;48.698;8.762;2023-06-22T08:10:04;95973.00;;;25.30
10869;BMP180;62667;48.698;8.762;2023-06-22T08:12:32;95980.00;;;25.30
10869;BMP180;62667;48.698;8.762;2023-06-22T08:14:59;95988.00;;;25.20
10869;BMP180;62667;48.698;8.762;2023-06-22T08:17:28;95996.00;;;24.70
10869;BMP180;62667;48.698;8.762;2023-06-22T08:19:57;95997.00;;;24.70
10869;BMP180;62667;48.698;8.762;2023-06-22T08:22:24;96006.00;;;24.20
10869;BMP180;62667;48.698;8.762;2023-06-22T08:24:52;95997.00;;;24.30
10869;BMP180;62667;48.698;8.762;2023-06-22T08:27:19;95987.00;;;24.50
10869;BMP180;62667;48.698;8.762;2023-06-22T08:29:49;95973.00;;;24.40
10869;BMP180;62667;48.698;8.762;2023-06-22T08:32:17;95972.00;;;24.60
10869;BMP180;62667;48.698;8.762;2023-06-22T08:34:46;95970.00;;;24.70
10869;BMP180;62667;48.698;8.762;2023-06-22T08:37:14;95980.00;;;25.00
10869;BMP180;62667;48.698;8.762;2023-06-22T08:39:41;95996.00;;;25.20
10869;BMP180;62667;48.698;8.762;2023-06-22T08:42:09;95993.00;;;25.10
10869;BMP180;62667;48.698;8.762;2023-06-22T08:44:36;95990.00;;;25.10
10869;BMP180;62667;48.698;8.762;2023-06-22T08:47:04;95982.00;;;25.00
10869;BMP180;62667;48.698;8.762;2023-06-22T08:49:32;95965.00;;;25.00
10869;BMP180;62667;48.698;8.762;2023-06-22T08:52:00;95959.00;;;25.30
10869;BMP180;62667;48.698;8.762;2023-06-22T08:54:28;95961.00;;;25.50
10869;BMP180;62667;48.698;8.762;2023-06-22T08:56:55;95961.00;;;25.30
10869;BMP180;62667;48.698;8.762;2023-06-22T08:59:23;95958.00;;;25.20
10869;BMP180;62667;48.698;8.762;2023-06-22T09:01:50;95950.00;;;25.10
10869;BMP180;62667;48.698;8.762;2023-06-22T09:04:17;95938.00;;;25.10
10869;BMP180;62667;48.698;8.762;2023-06-22T09:06:48;95930.00;;;25.10
10869;BMP180;62667;48.698;8.762;2023-06-22T09:09:17;95916.00;;;25.10
10869;BMP180;62667;48.698;8.762;2023-06-22T09:11:45;95929.00;;;25.30
10869;BMP180;62667;48.698;8.762;2023-06-22T09:14:13;95933.00;;;25.50
10869;BMP180;62667;48.698;8.762;2023-06-22T09:16:41;95929.00;;;26.10
10869;BMP180;62667;48.698;8.762;2023-06-22T09:19:09;95922.00;;;26.30
10869;BMP180;62667;48.698;8.762;2023-06-22T09:21:36;95918.00;;;26.50
10869;BMP180;62667;48.698;8.762;2023-06-22T09:24:04;95926.00;;;26.80
10869;BMP180;62667;48.698;8.762;2023-06-22T09:26:33;95921.00;;;27.00
10869;BMP180;62667;48.698;8.762;2023-06-22T09:29:01;95913.00;;;27.00
10869;BMP180;62667;48.698;8.762;2023-06-22T09:31:28;95908.00;;;27.30
10869;BMP180;62667;48.698;8.762;2023-06-22T09:33:56;95902.00;;;27.50
10869;BMP180;62667;48.698;8.762;2023-06-22T09:36:23;95896.00;;;27.70
10869;BMP180;62667;48.698;8.762;2023-06-22T09:38:51;95895.00;;;28.10
10869;BMP180;62667;48.698;8.762;2023-06-22T09:41:22;95896.00;;;28.20
10869;BMP180;62667;48.698;8.762;2023-06-22T09:43:50;95881.00;;;28.20
10869;BMP180;62667;48.698;8.762;2023-06-22T09:46:18;95882.00;;;28.20
10869;BMP180;62667;48.698;8.762;2023-06-22T09:48:47;95881.00;;;28.40
10869;BMP180;62667;48.698;8.762;2023-06-22T09:51:15;95882.00;;;28.60
10869;BMP180;62667;48.698;8.762;2023-06-22T09:53:42;95878.00;;;28.10
10869;BMP180;62667;48.698;8.762;2023-06-22T09:56:10;95862.00;;;28.20
10869;BMP180;62667;48.698;8.762;2023-06-22T09:58:41;95866.00;;;28.70
10869;BMP180;62667;48.698;8.762;2023-06-22T10:01:10;95869.00;;;28.60
10869;BMP180;62667;48.698;8.762;2023-06-22T10:03:38;95871.00;;;28.70
10869;BMP180;62667;48.698;8.762;2023-06-22T10:06:05;95865.00;;;28.50
10869;BMP180;62667;48.698;8.762;2023-06-22T10:08:32;95865.00;;;28.70
10869;BMP180;62667;48.698;8.762;2023-06-22T10:11:00;95853.00;;;28.30
10869;BMP180;62667;48.698;8.762;2023-06-22T10:13:27;95843.00;;;28.50
10869;BMP180;62667;48.698;8.762;2023-06-22T10:15:55;95854.00;;;29.10
10869;BMP180;62667;48.698;8.762;2023-06-22T10:18:24;95812.00;;;29.00
10869;BMP180;62667;48.698;8.762;2023-06-22T10:20:51;95859.00;;;29.30
10869;BMP180;62667;48.698;8.762;2023-06-22T10:23:19;95852.00;;;29.50
10869;BMP180;62667;48.698;8.762;2023-06-22T10:25:47;95849.00;;;30.00
10869;BMP180;62667;48.698;8.762;2023-06-22T10:28:15;95854.00;;;29.90
10869;BMP180;62667;48.698;8.762;2023-06-22T10:30:43;95858.00;;;29.80
10869;BMP180;62667;48.698;8.762;2023-06-22T10:33:11;95866.00;;;29.60
10869;BMP180;62667;48.698;8.762;2023-06-22T10:35:40;95860.00;;;29.90
10869;BMP180;62667;48.698;8.762;2023-06-22T10:38:08;95856.00;;;30.20
10869;BMP180;62667;48.698;8.762;2023-06-22T10:40:35;95856.00;;;30.20
10869;BMP180;62667;48.698;8.762;2023-06-22T10:43:03;95858.00;;;30.00
10869;BMP180;62667;48.698;8.762;2023-06-22T10:45:31;95856.00;;;30.10
10869;BMP180;62667;48.698;8.762;2023-06-22T10:47:59;95857.00;;;30.40
10869;BMP180;62667;48.698;8.762;2023-06-22T10:50:26;95858.00;;;30.30
10869;BMP180;62667;48.698;8.762;2023-06-22T10:52:56;95865.00;;;30.30
10869;BMP180;62667;48.698;8.762;2023-06-22T10:55:23;95855.00;;;30.30
10869;BMP180;62667;48.698;8.762;2023-06-22T10:57:50;95852.00;;;30.40
10869;BMP180;62667;48.698;8.762;2023-06-22T11:00:18;95855.00;;;30.10
10869;BMP180;62667;48.698;8.762;2023-06-22T11:02:47;95859.00;;;30.20
10869;BMP180;62667;48.698;8.762;2023-06-22T11:05:14;95859.00;;;30.20
10869;BMP180;62667;48.698;8.762;2023-06-22T11:07:42;95854.00;;;30.10
10869;BMP180;62667;48.698;8.762;2023-06-22T11:10:12;95857.00;;;29.70
10869;BMP180;62667;48.698;8.762;2023-06-22T11:12:39;95865.00;;;29.80
10869;BMP180;62667;48.698;8.762;2023-06-22T11:15:08;95855.00;;;29.70
10869;BMP180;62667;48.698;8.762;2023-06-22T11:17:35;95846.00;;;29.80
10869;BMP180;62667;48.698;8.762;2023-06-22T11:20:03;95844.00;;;30.00
10869;BMP180;62667;48.698;8.762;2023-06-22T11:22:37;95836.00;;;30.20
10869;BMP180;62667;48.698;8.762;2023-06-22T11:25:06;95848.00;;;30.40
10869;BMP180;62667;48.698;8.762;2023-06-22T11:27:35;95844.00;;;30.20
10869;BMP180;62667;48.698;8.762;2023-06-22T11:30:03;95848.00;;;30.20
10869;BMP180;62667;48.698;8.762;2023-06-22T11:32:30;95844.00;;;30.00
10869;BMP180;62667;48.698;8.762;2023-06-22T11:34:58;95836.00;;;29.80
10869;BMP180;62667;48.698;8.762;2023-06-22T11:37:25;95835.00;;;29.70
10869;BMP180;62667;48.698;8.762;2023-06-22T11:39:53;95847.00;;;29.50
10869;BMP180;62667;48.698;8.762;2023-06-22T11:42:21;95848.00;;;29.30
10869;BMP180;62667;48.698;8.762;2023-06-22T11:44:51;95848.00;;;29.40
10869;BMP180;62667;48.698;8.762;2023-06-22T11:47:18;95862.00;;;29.20
10869;BMP180;62667;48.698;8.762;2023-06-22T11:49:46;95868.00;;;29.20
10869;BMP180;62667;48.698;8.762;2023-06-22T11:52:14;95876.00;;;28.80
10869;BMP180;62667;48.698;8.762;2023-06-22T11:54:41;95878.00;;;29.00
10869;BMP180;62667;48.698;8.762;2023-06-22T11:57:08;95884.00;;;29.00
10869;BMP180;62667;48.698;8.762;2023-06-22T11:59:36;95887.00;;;29.10
10869;BMP180;62667;48.698;8.762;2023-06-22T12:02:05;95888.00;;;29.00
10869;BMP180;62667;48.698;8.762;2023-06-22T12:04:33;95881.00;;;29.30
10869;BMP180;62667;48.698;8.762;2023-06-22T12:07:01;95876.00;;;29.30
10869;BMP180;62667;48.698;8.762;2023-06-22T12:09:28;95875.00;;;29.60
10869;BMP180;62667;48.698;8.762;2023-06-22T12:11:56;95863.00;;;29.80
10869;BMP180;62667;48.698;8.762;2023-06-22T12:14:23;95858.00;;;30.10
10869;BMP180;62667;48.698;8.762;2023-06-22T12:16:51;95863.00;;;30.20
10869;BMP180;62667;48.698;8.762;2023-06-22T12:19:19;95876.00;;;30.30
10869;BMP180;62667;48.698;8.762;2023-06-22T12:21:47;95876.00;;;30.40
10869;BMP180;62667;48.698;8.762;2023-06-22T12:24:14;95882.00;;;30.40
10869;BMP180;62667;48.698;8.762;2023-06-22T12:26:42;95882.00;;;30.20
10869;BMP180;62667;48.698;8.762;2023-06-22T12:29:10;95860.00;;;30.10
10869;BMP180;62667;48.698;8.762;2023-06-22T12:31:38;95882.00;;;30.40
10869;BMP180;62667;48.698;8.762;2023-06-22T12:34:05;95887.00;;;30.10
10869;BMP180;62667;48.698;8.762;2023-06-22T12:36:34;95881.00;;;30.10
10869;BMP180;62667;48.698;8.762;2023-06-22T12:39:02;95869.00;;;30.10
10869;BMP180;62667;48.698;8.762;2023-06-22T12:41:29;95867.00;;;30.20
10869;BMP180;62667;48.698;8.762;2023-06-22T12:43:57;95863.00;;;30.40
10869;BMP180;62667;48.698;8.762;2023-06-22T12:46:24;95875.00;;;30.50
10869;BMP180;62667;48.698;8.762;2023-06-22T12:48:52;95870.00;;;30.60
10869;BMP180;62667;48.698;8.762;2023-06-22T12:51:22;95882.00;;;30.20
10869;BMP180;62667;48.698;8.762;2023-06-22T12:53:51;95881.00;;;30.20
10869;BMP180;62667;48.698;8.762;2023-06-22T12:56:19;95880.00;;;30.20
10869;BMP180;62667;48.698;8.762;2023-06-22T12:58:46;95886.00;;;29.90
10869;BMP180;62667;48.698;8.762;2023-06-22T13:01:14;95894.00;;;29.90
10869;BMP180;62667;48.698;8.762;2023-06-22T13:03:42;95893.00;;;30.00
10869;BMP180;62667;48.698;8.762;2023-06-22T13:06:10;95886.00;;;29.80
10869;BMP180;62667;48.698;8.762;2023-06-22T13:08:37;95893.00;;;29.70
10869;BMP180;62667;48.698;8.762;2023-06-22T13:11:06;95887.00;;;29.80
10869;BMP180;62667;48.698;8.762;2023-06-22T13:13:33;95885.00;;;29.60
10869;BMP180;62667;48.698;8.762;2023-06-22T13:16:01;95880.00;;;29.60
10869;BMP180;62667;48.698;8.762;2023-06-22T13:18:28;95872.00;;;29.60
10869;BMP180;62667;48.698;8.762;2023-06-22T13:20:56;95868.00;;;29.60
10869;BMP180;62667;48.698;8.762;2023-06-22T13:23:24;95869.00;;;29.80
10869;BMP180;62667;48.698;8.762;2023-06-22T13:25:51;95859.00;;;29.80
10869;BMP180;62667;48.698;8.762;2023-06-22T13:28:21;95851.00;;;30.10
10869;BMP180;62667;48.698;8.762;2023-06-22T13:30:48;95861.00;;;30.20
10869;BMP180;62667;48.698;8.762;2023-06-22T13:33:16;95855.00;;;30.30
10869;BMP180;62667;48.698;8.762;2023-06-22T13:35:43;95871.00;;;30.20
10869;BMP180;62667;48.698;8.762;2023-06-22T13:38:11;95868.00;;;29.80
10869;BMP180;62667;48.698;8.762;2023-06-22T13:40:38;95862.00;;;29.60
10869;BMP180;62667;48.698;8.762;2023-06-22T13:43:06;95852.00;;;29.60
10869;BMP180;62667;48.698;8.762;2023-06-22T13:45:35;95839.00;;;29.80
10869;BMP180;62667;48.698;8.762;2023-06-22T13:48:03;95825.00;;;29.40
10869;BMP180;62667;48.698;8.762;2023-06-22T13:50:30;95825.00;;;29.70
10869;BMP180;62667;48.698;8.762;2023-06-22T13:52:58;95826.00;;;30.00
10869;BMP180;62667;48.698;8.762;2023-06-22T13:55:25;95812.00;;;30.10
10869;BMP180;62667;48.698;8.762;2023-06-22T13:57:53;95850.00;;;29.80
10869;BMP180;62667;48.698;8.762;2023-06-22T14:00:21;95830.00;;;29.40
10869;BMP180;62667;48.698;8.762;2023-06-22T14:02:49;95801.00;;;29.60
10869;BMP180;62667;48.698;8.762;2023-06-22T14:05:17;95810.00;;;29.90
10869;BMP180;62667;48.698;8.762;2023-06-22T14:07:45;95803.00;;;29.80
10869;BMP180;62667;48.698;8.762;2023-06-22T14:10:12;95808.00;;;29.80
10869;BMP180;62667;48.698;8.762;2023-06-22T14:12:40;95816.00;;;29.60
10869;BMP180;62667;48.698;8.762;2023-06-22T14:15:08;95821.00;;;30.00